sensor_id;sensor_type;location;lat;lon;timestamp;pressure;altitude;pressure_sealevel;temperature;humidity
38716;BME280;24833;49.324;8.694;2023-05-23T00:01:49;99558.50;;;19.70;43.99
38716;BME280;24833;49.324;8.694;2023-05-23T00:04:16;99551.44;;;19.69;44.31
38716;BME280;24833;49.324;8.694;2023-05-23T00:06:44;99559.84;;;19.68;43.87
38716;BME280;24833;49.324;8.694;2023-05-23T00:09:16;99557.41;;;19.66;44.14
38716;BME280;24833;49.324;8.694;2023-05-23T00:11:43;99566.56;;;19.65;44.00
38716;BME280;24833;49.324;8.694;2023-05-23T00:14:15;99568.75;;;19.63;44.26
38716;BME280;24833;49.324;8.694;2023-05-23T00:16:44;99562.78;;;19.61;44.23
38716;BME280;24833;49.324;8.694;2023-05-23T00:19:12;99576.59;;;19.59;44.74
38716;BME280;24833;49.324;8.694;2023-05-23T00:21:45;99571.41;;;19.58;44.08
38716;BME280;24833;49.324;8.694;2023-05-23T00:24:16;99568.13;;;19.56;44.42
38716;BME280;24833;49.324;8.694;2023-05-23T00:26:45;99564.84;;;19.54;44.11
38716;BME280;24833;49.324;8.694;2023-05-23T00:29:13;99571.59;;;19.51;44.75
38716;BME280;24833;49.324;8.694;2023-05-23T00:31:43;99573.75;;;19.49;44.30
38716;BME280;24833;49.324;8.694;2023-05-23T00:34:14;99568.03;;;19.46;44.32
38716;BME280;24833;49.324;8.694;2023-05-23T00:36:43;99565.84;;;19.43;44.93
38716;BME280;24833;49.324;8.694;2023-05-23T00:39:13;99559.28;;;19.39;44.42
38716;BME280;24833;49.324;8.694;2023-05-23T00:41:48;99566.31;;;19.35;44.96
38716;BME280;24833;49.324;8.694;2023-05-23T00:44:18;99571.16;;;19.32;45.03
38716;BME280;24833;49.324;8.694;2023-05-23T00:46:51;99565.72;;;19.27;45.01
38716;BME280;24833;49.324;8.694;2023-05-23T00:49:19;99570.00;;;19.23;45.09
38716;BME280;24833;49.324;8.694;2023-05-23T00:51:47;99572.44;;;19.20;45.01
38716;BME280;24833;49.324;8.694;2023-05-23T00:54:23;99562.38;;;19.15;44.35
38716;BME280;24833;49.324;8.694;2023-05-23T00:56:51;99568.28;;;19.12;45.31
38716;BME280;24833;49.324;8.694;2023-05-23T00:59:19;99558.25;;;19.08;44.75
38716;BME280;24833;49.324;8.694;2023-05-23T01:01:49;99568.75;;;19.04;45.60
38716;BME280;24833;49.324;8.694;2023-05-23T01:04:17;99570.34;;;19.00;45.45
38716;BME280;24833;49.324;8.694;2023-05-23T01:06:45;99570.84;;;18.97;45.18
38716;BME280;24833;49.324;8.694;2023-05-23T01:09:16;99571.38;;;18.94;44.81
38716;BME280;24833;49.324;8.694;2023-05-23T01:12:28;99577.78;;;18.88;43.04
38716;BME280;24833;49.324;8.694;2023-05-23T01:20:27;99569.81;;;18.76;44.88
38716;BME280;24833;49.324;8.694;2023-05-23T01:26:05;99564.88;;;18.68;43.19
38716;BME280;24833;49.324;8.694;2023-05-23T01:28:45;99573.44;;;18.65;44.75
38716;BME280;24833;49.324;8.694;2023-05-23T01:31:15;99573.16;;;18.61;45.79
38716;BME280;24833;49.324;8.694;2023-05-23T01:33:43;99574.44;;;18.59;45.17
38716;BME280;24833;49.324;8.694;2023-05-23T01:36:12;99579.56;;;18.55;45.67
38716;BME280;24833;49.324;8.694;2023-05-23T01:38:41;99572.78;;;18.52;46.14
38716;BME280;24833;49.324;8.694;2023-05-23T01:41:08;99582.19;;;18.50;46.15
38716;BME280;24833;49.324;8.694;2023-05-23T01:43:37;99577.53;;;18.45;46.12
38716;BME280;24833;49.324;8.694;2023-05-23T01:46:05;99588.63;;;18.44;46.30
38716;BME280;24833;49.324;8.694;2023-05-23T01:48:33;99585.63;;;18.40;45.94
38716;BME280;24833;49.324;8.694;2023-05-23T01:51:03;99587.97;;;18.37;45.64
38716;BME280;24833;49.324;8.694;2023-05-23T01:53:31;99589.31;;;18.34;46.12
38716;BME280;24833;49.324;8.694;2023-05-23T01:55:59;99594.38;;;18.31;45.86
38716;BME280;24833;49.324;8.694;2023-05-23T01:58:29;99594.91;;;18.28;46.51
38716;BME280;24833;49.324;8.694;2023-05-23T02:00:56;99602.47;;;18.26;46.19
38716;BME280;24833;49.324;8.694;2023-05-23T02:03:23;99596.72;;;18.22;46.14
38716;BME280;24833;49.324;8.694;2023-05-23T02:05:51;99605.09;;;18.20;47.14
38716;BME280;24833;49.324;8.694;2023-05-23T02:08:18;99605.56;;;18.17;46.32
38716;BME280;24833;49.324;8.694;2023-05-23T02:10:45;99607.72;;;18.15;46.11
38716;BME280;24833;49.324;8.694;2023-05-23T02:13:12;99604.44;;;18.13;46.25
38716;BME280;24833;49.324;8.694;2023-05-23T02:15:39;99607.38;;;18.12;46.37
38716;BME280;24833;49.324;8.694;2023-05-23T02:18:07;99610.59;;;18.09;46.59
38716;BME280;24833;49.324;8.694;2023-05-23T02:20:38;99608.41;;;18.06;46.40
38716;BME280;24833;49.324;8.694;2023-05-23T02:23:07;99607.00;;;18.03;47.21
38716;BME280;24833;49.324;8.694;2023-05-23T02:25:36;99606.44;;;18.01;46.72
38716;BME280;24833;49.324;8.694;2023-05-23T02:28:06;99608.56;;;17.99;47.28
38716;BME280;24833;49.324;8.694;2023-05-23T02:30:33;99612.81;;;17.95;46.77
38716;BME280;24833;49.324;8.694;2023-05-23T02:33:04;99611.69;;;17.91;46.88
38716;BME280;24833;49.324;8.694;2023-05-23T02:35:32;99619.47;;;17.87;46.74
38716;BME280;24833;49.324;8.694;2023-05-23T02:38:00;99622.66;;;17.84;46.89
38716;BME280;24833;49.324;8.694;2023-05-23T02:40:27;99625.84;;;17.81;47.74
38716;BME280;24833;49.324;8.694;2023-05-23T02:42:54;99625.28;;;17.79;46.87
38716;BME280;24833;49.324;8.694;2023-05-23T02:45:23;99624.97;;;17.76;47.88
38716;BME280;24833;49.324;8.694;2023-05-23T02:47:50;99615.47;;;17.73;47.10
38716;BME280;24833;49.324;8.694;2023-05-23T02:50:17;99622.13;;;17.70;48.00
38716;BME280;24833;49.324;8.694;2023-05-23T02:52:44;99623.47;;;17.68;47.55
38716;BME280;24833;49.324;8.694;2023-05-23T02:55:11;99623.13;;;17.64;47.37
38716;BME280;24833;49.324;8.694;2023-05-23T02:57:43;99622.56;;;17.62;47.82
38716;BME280;24833;49.324;8.694;2023-05-23T03:00:10;99615.78;;;17.60;47.91
38716;BME280;24833;49.324;8.694;2023-05-23T03:02:38;99625.16;;;17.57;48.09
38716;BME280;24833;49.324;8.694;2023-05-23T03:05:06;99621.34;;;17.53;48.16
38716;BME280;24833;49.324;8.694;2023-05-23T03:07:33;99616.41;;;17.50;48.41
38716;BME280;24833;49.324;8.694;2023-05-23T03:10:00;99621.25;;;17.48;48.25
38716;BME280;24833;49.324;8.694;2023-05-23T03:12:28;99620.91;;;17.44;47.83
38716;BME280;24833;49.324;8.694;2023-05-23T03:14:55;99620.34;;;17.42;48.35
38716;BME280;24833;49.324;8.694;2023-05-23T03:17:24;99624.34;;;17.40;48.26
38716;BME280;24833;49.324;8.694;2023-05-23T03:19:51;99638.91;;;17.39;48.31
38716;BME280;24833;49.324;8.694;2023-05-23T03:22:19;99639.94;;;17.38;48.26
38716;BME280;24833;49.324;8.694;2023-05-23T03:24:46;99638.31;;;17.37;49.19
38716;BME280;24833;49.324;8.694;2023-05-23T03:27:13;99642.09;;;17.36;49.11
38716;BME280;24833;49.324;8.694;2023-05-23T03:29:41;99641.25;;;17.35;48.29
38716;BME280;24833;49.324;8.694;2023-05-23T03:32:10;99641.50;;;17.34;48.49
38716;BME280;24833;49.324;8.694;2023-05-23T03:34:37;99639.63;;;17.34;48.69
38716;BME280;24833;49.324;8.694;2023-05-23T03:37:05;99647.47;;;17.36;48.49
38716;BME280;24833;49.324;8.694;2023-05-23T03:39:32;99643.72;;;17.37;48.28
38716;BME280;24833;49.324;8.694;2023-05-23T03:41:59;99645.34;;;17.38;48.45
38716;BME280;24833;49.324;8.694;2023-05-23T03:44:27;99643.25;;;17.40;48.56
38716;BME280;24833;49.324;8.694;2023-05-23T03:46:55;99649.22;;;17.42;49.06
38716;BME280;24833;49.324;8.694;2023-05-23T03:49:22;99649.56;;;17.46;49.22
38716;BME280;24833;49.324;8.694;2023-05-23T03:51:49;99647.91;;;17.44;49.13
38716;BME280;24833;49.324;8.694;2023-05-23T03:54:19;99649.31;;;17.47;48.39
38716;BME280;24833;49.324;8.694;2023-05-23T03:56:47;99655.53;;;17.48;49.28
38716;BME280;24833;49.324;8.694;2023-05-23T03:59:14;99663.38;;;17.49;48.86
38716;BME280;24833;49.324;8.694;2023-05-23T04:01:41;99658.53;;;17.51;49.38
38716;BME280;24833;49.324;8.694;2023-05-23T04:04:09;99665.59;;;17.52;48.58
38716;BME280;24833;49.324;8.694;2023-05-23T04:06:37;99665.34;;;17.54;49.31
38716;BME280;24833;49.324;8.694;2023-05-23T04:09:04;99665.91;;;17.56;49.55
38716;BME280;24833;49.324;8.694;2023-05-23T04:11:36;99662.97;;;17.57;49.80
38716;BME280;24833;49.324;8.694;2023-05-23T04:14:04;99660.88;;;17.59;49.93
38716;BME280;24833;49.324;8.694;2023-05-23T04:16:31;99671.41;;;17.61;49.65
38716;BME280;24833;49.324;8.694;2023-05-23T04:18:59;99671.41;;;17.61;49.58
38716;BME280;24833;49.324;8.694;2023-05-23T04:21:31;99668.97;;;17.59;48.82
38716;BME280;24833;49.324;8.694;2023-05-23T04:24:06;99679.78;;;17.59;49.32
38716;BME280;24833;49.324;8.694;2023-05-23T04:26:34;99675.41;;;17.58;48.93
38716;BME280;24833;49.324;8.694;2023-05-23T04:29:03;99672.13;;;17.56;49.49
38716;BME280;24833;49.324;8.694;2023-05-23T04:31:32;99671.06;;;17.57;49.81
38716;BME280;24833;49.324;8.694;2023-05-23T04:34:00;99670.25;;;17.57;49.67
38716;BME280;24833;49.324;8.694;2023-05-23T04:36:29;99674.59;;;17.58;49.28
38716;BME280;24833;49.324;8.694;2023-05-23T04:38:56;99681.88;;;17.57;50.21
38716;BME280;24833;49.324;8.694;2023-05-23T04:41:23;99684.56;;;17.57;49.87
38716;BME280;24833;49.324;8.694;2023-05-23T04:44:04;99682.69;;;17.58;49.78
38716;BME280;24833;49.324;8.694;2023-05-23T04:46:55;99681.88;;;17.57;49.47
38716;BME280;24833;49.324;8.694;2023-05-23T04:49:29;99686.47;;;17.57;50.44
38716;BME280;24833;49.324;8.694;2023-05-23T04:51:56;99683.75;;;17.57;49.93
38716;BME280;24833;49.324;8.694;2023-05-23T04:54:26;99688.34;;;17.56;50.50
38716;BME280;24833;49.324;8.694;2023-05-23T04:56:54;99680.50;;;17.55;50.62
38716;BME280;24833;49.324;8.694;2023-05-23T04:59:23;99694.00;;;17.55;51.55
38716;BME280;24833;49.324;8.694;2023-05-23T05:01:50;99690.72;;;17.53;50.55
38716;BME280;24833;49.324;8.694;2023-05-23T05:04:18;99691.19;;;17.50;51.29
38716;BME280;24833;49.324;8.694;2023-05-23T05:06:45;99694.16;;;17.48;51.01
38716;BME280;24833;49.324;8.694;2023-05-23T05:09:14;99696.28;;;17.46;50.32
38716;BME280;24833;49.324;8.694;2023-05-23T05:11:42;99700.00;;;17.45;50.36
38716;BME280;24833;49.324;8.694;2023-05-23T05:14:09;99702.16;;;17.43;50.60
38716;BME280;24833;49.324;8.694;2023-05-23T05:16:36;99710.25;;;17.43;51.16
38716;BME280;24833;49.324;8.694;2023-05-23T05:19:04;99705.91;;;17.42;51.27
38716;BME280;24833;49.324;8.694;2023-05-23T05:21:31;99704.28;;;17.41;50.87
38716;BME280;24833;49.324;8.694;2023-05-23T05:23:59;99717.78;;;17.41;51.04
38716;BME280;24833;49.324;8.694;2023-05-23T05:26:26;99718.84;;;17.40;51.25
38716;BME280;24833;49.324;8.694;2023-05-23T05:28:54;99720.47;;;17.41;52.13
38716;BME280;24833;49.324;8.694;2023-05-23T05:31:21;99724.81;;;17.42;51.75
38716;BME280;24833;49.324;8.694;2023-05-23T05:33:48;99718.84;;;17.40;50.70
38716;BME280;24833;49.324;8.694;2023-05-23T05:36:15;99724.81;;;17.42;51.83
38716;BME280;24833;49.324;8.694;2023-05-23T05:38:44;99719.97;;;17.44;51.67
38716;BME280;24833;49.324;8.694;2023-05-23T05:41:12;99736.78;;;17.46;51.63
38716;BME280;24833;49.324;8.694;2023-05-23T05:43:46;99727.38;;;17.49;51.47
38716;BME280;24833;49.324;8.694;2023-05-23T05:46:15;99732.88;;;17.54;52.02
38716;BME280;24833;49.324;8.694;2023-05-23T05:48:44;99740.22;;;17.58;52.17
38716;BME280;24833;49.324;8.694;2023-05-23T05:51:12;99733.28;;;17.62;51.56
38716;BME280;24833;49.324;8.694;2023-05-23T05:53:40;99745.25;;;17.66;51.69
38716;BME280;24833;49.324;8.694;2023-05-23T05:56:07;99745.81;;;17.68;52.37
38716;BME280;24833;49.324;8.694;2023-05-23T05:58:35;99747.94;;;17.66;51.89
38716;BME280;24833;49.324;8.694;2023-05-23T06:01:06;99753.34;;;17.66;51.48
38716;BME280;24833;49.324;8.694;2023-05-23T06:03:34;99755.00;;;17.67;52.44
38716;BME280;24833;49.324;8.694;2023-05-23T06:06:01;99755.56;;;17.69;52.15
38716;BME280;24833;49.324;8.694;2023-05-23T06:08:29;99758.63;;;17.73;51.47
38716;BME280;24833;49.324;8.694;2023-05-23T06:10:56;99764.94;;;17.79;51.42
38716;BME280;24833;49.324;8.694;2023-05-23T06:13:24;99773.13;;;17.84;52.85
38716;BME280;24833;49.324;8.694;2023-05-23T06:15:53;99770.53;;;17.89;52.14
38716;BME280;24833;49.324;8.694;2023-05-23T06:18:21;99784.13;;;17.94;51.94
38716;BME280;24833;49.324;8.694;2023-05-23T06:20:49;99776.34;;;17.97;51.71
38716;BME280;24833;49.324;8.694;2023-05-23T06:23:17;99792.66;;;18.03;52.42
38716;BME280;24833;49.324;8.694;2023-05-23T06:25:46;99791.69;;;18.09;52.08
38716;BME280;24833;49.324;8.694;2023-05-23T06:28:13;99790.97;;;18.13;52.62
38716;BME280;24833;49.324;8.694;2023-05-23T06:30:40;99794.78;;;18.17;52.94
38716;BME280;24833;49.324;8.694;2023-05-23T06:33:08;99794.31;;;18.20;52.53
38716;BME280;24833;49.324;8.694;2023-05-23T06:35:35;99792.19;;;18.22;52.78
38716;BME280;24833;49.324;8.694;2023-05-23T06:38:02;99795.22;;;18.26;52.97
38716;BME280;24833;49.324;8.694;2023-05-23T06:40:29;99790.94;;;18.30;53.17
38716;BME280;24833;49.324;8.694;2023-05-23T06:42:56;99795.63;;;18.35;52.44
38716;BME280;24833;49.324;8.694;2023-05-23T06:45:31;99797.09;;;18.42;52.05
38716;BME280;24833;49.324;8.694;2023-05-23T06:48:01;99799.91;;;18.47;53.13
38716;BME280;24833;49.324;8.694;2023-05-23T06:50:29;99795.38;;;18.53;52.42
38716;BME280;24833;49.324;8.694;2023-05-23T06:52:57;99797.09;;;18.59;53.08
38716;BME280;24833;49.324;8.694;2023-05-23T06:55:24;99800.38;;;18.61;52.92
38716;BME280;24833;49.324;8.694;2023-05-23T06:57:51;99808.59;;;18.66;52.74
38716;BME280;24833;49.324;8.694;2023-05-23T07:00:20;99816.78;;;18.71;52.33
38716;BME280;24833;49.324;8.694;2023-05-23T07:03:06;99816.28;;;18.74;53.12
38716;BME280;24833;49.324;8.694;2023-05-23T07:05:33;99815.78;;;18.77;52.93
38716;BME280;24833;49.324;8.694;2023-05-23T07:08:07;99819.31;;;18.78;52.44
38716;BME280;24833;49.324;8.694;2023-05-23T07:10:37;99829.91;;;18.80;53.15
38716;BME280;24833;49.324;8.694;2023-05-23T07:13:20;99825.06;;;18.82;52.15
38716;BME280;24833;49.324;8.694;2023-05-23T07:15:47;99825.63;;;18.84;51.79
38716;BME280;24833;49.324;8.694;2023-05-23T07:18:14;99836.44;;;18.84;52.06
38716;BME280;24833;49.324;8.694;2023-05-23T07:20:42;99840.56;;;18.86;53.15
38716;BME280;24833;49.324;8.694;2023-05-23T07:23:14;99838.16;;;18.90;52.95
38716;BME280;24833;49.324;8.694;2023-05-23T07:25:42;99844.72;;;18.94;52.37
38716;BME280;24833;49.324;8.694;2023-05-23T07:28:28;99837.81;;;19.03;52.54
38716;BME280;24833;49.324;8.694;2023-05-23T07:30:56;99839.25;;;19.11;52.77
38716;BME280;24833;49.324;8.694;2023-05-23T07:33:24;99843.69;;;19.17;52.38
38716;BME280;24833;49.324;8.694;2023-05-23T07:35:59;99837.00;;;19.24;52.25
38716;BME280;24833;49.324;8.694;2023-05-23T07:38:26;99839.28;;;19.32;52.49
38716;BME280;24833;49.324;8.694;2023-05-23T07:40:53;99846.41;;;19.39;52.68
38716;BME280;24833;49.324;8.694;2023-05-23T07:43:36;99848.91;;;19.45;52.63
38716;BME280;24833;49.324;8.694;2023-05-23T07:46:03;99852.50;;;19.51;52.16
38716;BME280;24833;49.324;8.694;2023-05-23T07:48:30;99844.47;;;19.56;52.22
38716;BME280;24833;49.324;8.694;2023-05-23T07:50:58;99848.56;;;19.58;52.58
38716;BME280;24833;49.324;8.694;2023-05-23T07:53:25;99855.94;;;19.63;51.98
38716;BME280;24833;49.324;8.694;2023-05-23T07:55:52;99847.06;;;19.68;52.46
38716;BME280;24833;49.324;8.694;2023-05-23T07:58:21;99854.41;;;19.72;52.56
38716;BME280;24833;49.324;8.694;2023-05-23T08:00:49;99862.63;;;19.77;52.41
38716;BME280;24833;49.324;8.694;2023-05-23T08:03:37;99848.59;;;19.85;51.93
38716;BME280;24833;49.324;8.694;2023-05-23T08:06:10;99860.91;;;19.93;51.97
38716;BME280;24833;49.324;8.694;2023-05-23T08:08:38;99857.47;;;20.03;52.04
38716;BME280;24833;49.324;8.694;2023-05-23T08:11:25;99859.47;;;20.12;51.85
38716;BME280;24833;49.324;8.694;2023-05-23T08:13:59;99864.44;;;20.21;52.04
38716;BME280;24833;49.324;8.694;2023-05-23T08:16:43;99867.75;;;20.28;52.18
38716;BME280;24833;49.324;8.694;2023-05-23T08:19:18;99865.94;;;20.33;51.38
38716;BME280;24833;49.324;8.694;2023-05-23T08:21:46;99867.84;;;20.38;52.33
38716;BME280;24833;49.324;8.694;2023-05-23T08:24:13;99876.84;;;20.44;51.42
38716;BME280;24833;49.324;8.694;2023-05-23T08:26:42;99883.44;;;20.48;51.78
38716;BME280;24833;49.324;8.694;2023-05-23T08:29:11;99875.84;;;20.50;51.56
38716;BME280;24833;49.324;8.694;2023-05-23T08:31:40;99872.38;;;20.54;51.51
38716;BME280;24833;49.324;8.694;2023-05-23T08:34:08;99880.31;;;20.61;51.43
38716;BME280;24833;49.324;8.694;2023-05-23T08:36:36;99874.88;;;20.66;51.33
38716;BME280;24833;49.324;8.694;2023-05-23T08:39:07;99872.81;;;20.73;51.87
38716;BME280;24833;49.324;8.694;2023-05-23T08:41:43;99871.22;;;20.82;51.57
38716;BME280;24833;49.324;8.694;2023-05-23T08:44:12;99870.22;;;20.93;51.58
38716;BME280;24833;49.324;8.694;2023-05-23T08:46:46;99878.16;;;21.00;51.38
38716;BME280;24833;49.324;8.694;2023-05-23T08:49:34;99881.69;;;21.06;51.51
38716;BME280;24833;49.324;8.694;2023-05-23T08:52:02;99883.94;;;21.14;50.87
38716;BME280;24833;49.324;8.694;2023-05-23T08:54:31;99877.97;;;21.17;51.21
38716;BME280;24833;49.324;8.694;2023-05-23T08:57:00;99874.47;;;21.21;51.13
38716;BME280;24833;49.324;8.694;2023-05-23T08:59:29;99878.28;;;21.26;50.57
38716;BME280;24833;49.324;8.694;2023-05-23T09:01:57;99885.69;;;21.30;50.35
38716;BME280;24833;49.324;8.694;2023-05-23T09:04:27;99893.06;;;21.35;50.48
38716;BME280;24833;49.324;8.694;2023-05-23T09:06:59;99893.34;;;21.38;50.18
38716;BME280;24833;49.324;8.694;2023-05-23T09:09:28;99885.50;;;21.42;50.12
38716;BME280;24833;49.324;8.694;2023-05-23T09:11:57;99885.22;;;21.43;50.08
38716;BME280;24833;49.324;8.694;2023-05-23T09:14:25;99897.16;;;21.42;50.19
38716;BME280;24833;49.324;8.694;2023-05-23T09:17:01;99893.63;;;21.42;49.95
38716;BME280;24833;49.324;8.694;2023-05-23T09:19:31;99896.63;;;21.40;50.08
38716;BME280;24833;49.324;8.694;2023-05-23T09:22:12;99896.88;;;21.39;50.05
38716;BME280;24833;49.324;8.694;2023-05-23T09:24:53;99901.22;;;21.40;50.07
38716;BME280;24833;49.324;8.694;2023-05-23T09:27:21;99909.66;;;21.43;49.88
38716;BME280;24833;49.324;8.694;2023-05-23T09:29:49;99902.63;;;21.47;49.94
38716;BME280;24833;49.324;8.694;2023-05-23T09:32:19;99897.75;;;21.49;50.02
38716;BME280;24833;49.324;8.694;2023-05-23T09:34:58;99906.19;;;21.53;49.84
38716;BME280;24833;49.324;8.694;2023-05-23T09:37:34;99895.34;;;21.58;50.03
38716;BME280;24833;49.324;8.694;2023-05-23T09:40:07;99894.81;;;21.66;50.14
38716;BME280;24833;49.324;8.694;2023-05-23T09:42:45;99892.44;;;21.75;50.10
38716;BME280;24833;49.324;8.694;2023-05-23T09:45:15;99900.09;;;21.88;50.61
38716;BME280;24833;49.324;8.694;2023-05-23T09:47:50;99903.97;;;22.08;50.50
38716;BME280;24833;49.324;8.694;2023-05-23T09:50:19;99891.75;;;22.25;50.61
38716;BME280;24833;49.324;8.694;2023-05-23T09:52:46;99891.25;;;22.39;50.11
38716;BME280;24833;49.324;8.694;2023-05-23T09:55:14;99899.72;;;22.47;50.13
38716;BME280;24833;49.324;8.694;2023-05-23T09:57:42;99900.50;;;22.53;49.66
38716;BME280;24833;49.324;8.694;2023-05-23T10:00:11;99895.06;;;22.53;49.86
38716;BME280;24833;49.324;8.694;2023-05-23T10:05:56;99901.88;;;22.76;49.57
38716;BME280;24833;49.324;8.694;2023-05-23T10:08:39;99898.06;;;22.82;49.36
38716;BME280;24833;49.324;8.694;2023-05-23T10:13:50;99891.28;;;22.95;49.48
38716;BME280;24833;49.324;8.694;2023-05-23T10:16:37;99892.34;;;22.99;48.95
38716;BME280;24833;49.324;8.694;2023-05-23T10:19:24;99907.34;;;22.96;48.69
38716;BME280;24833;49.324;8.694;2023-05-23T10:22:05;99895.66;;;22.96;48.49
38716;BME280;24833;49.324;8.694;2023-05-23T10:24:33;99899.72;;;22.98;48.71
38716;BME280;24833;49.324;8.694;2023-05-23T10:27:02;99890.44;;;22.99;49.17
38716;BME280;24833;49.324;8.694;2023-05-23T10:29:30;99897.28;;;22.97;48.55
38716;BME280;24833;49.324;8.694;2023-05-23T10:31:59;99895.38;;;23.02;48.94
38716;BME280;24833;49.324;8.694;2023-05-23T10:34:56;99888.25;;;23.11;49.13
38716;BME280;24833;49.324;8.694;2023-05-23T10:44:06;99902.34;;;23.39;48.02
38716;BME280;24833;49.324;8.694;2023-05-23T10:46:53;99902.63;;;23.48;48.25
38716;BME280;24833;49.324;8.694;2023-05-23T10:49:44;99902.63;;;23.48;47.83
38716;BME280;24833;49.324;8.694;2023-05-23T10:52:19;99901.81;;;23.42;47.74
38716;BME280;24833;49.324;8.694;2023-05-23T10:54:52;99898.28;;;23.31;47.57
38716;BME280;24833;49.324;8.694;2023-05-23T10:57:21;99907.31;;;23.17;47.87
38716;BME280;24833;49.324;8.694;2023-05-23T10:59:50;99905.69;;;23.10;47.69
38716;BME280;24833;49.324;8.694;2023-05-23T11:02:23;99907.34;;;23.11;48.03
38716;BME280;24833;49.324;8.694;2023-05-23T11:05:23;99908.41;;;23.21;48.35
38716;BME280;24833;49.324;8.694;2023-05-23T11:08:13;99912.75;;;23.32;48.22
38716;BME280;24833;49.324;8.694;2023-05-23T11:13:22;99913.00;;;23.41;48.03
38716;BME280;24833;49.324;8.694;2023-05-23T11:15:49;99915.69;;;23.46;48.20
38716;BME280;24833;49.324;8.694;2023-05-23T11:18:26;99919.25;;;23.46;47.65
38716;BME280;24833;49.324;8.694;2023-05-23T11:20:54;99917.63;;;23.40;47.52
38716;BME280;24833;49.324;8.694;2023-05-23T11:23:22;99919.53;;;23.39;47.25
38716;BME280;24833;49.324;8.694;2023-05-23T11:25:53;99920.09;;;23.36;47.73
38716;BME280;24833;49.324;8.694;2023-05-23T11:28:21;99922.00;;;23.36;47.33
38716;BME280;24833;49.324;8.694;2023-05-23T11:30:50;99923.63;;;23.37;47.80
38716;BME280;24833;49.324;8.694;2023-05-23T11:33:17;99925.53;;;23.36;47.58
38716;BME280;24833;49.324;8.694;2023-05-23T11:35:46;99925.53;;;23.42;47.99
38716;BME280;24833;49.324;8.694;2023-05-23T11:38:17;99923.06;;;23.40;47.75
38716;BME280;24833;49.324;8.694;2023-05-23T11:40:46;99927.97;;;23.48;47.97
38716;BME280;24833;49.324;8.694;2023-05-23T11:43:15;99917.84;;;23.64;48.05
38716;BME280;24833;49.324;8.694;2023-05-23T11:45:43;99924.34;;;23.78;48.04
38716;BME280;24833;49.324;8.694;2023-05-23T11:48:15;99922.13;;;23.90;47.81
38716;BME280;24833;49.324;8.694;2023-05-23T11:53:13;99923.47;;;23.93;47.40
38716;BME280;24833;49.324;8.694;2023-05-23T11:55:55;99923.00;;;23.81;47.01
38716;BME280;24833;49.324;8.694;2023-05-23T11:58:35;99921.38;;;23.70;46.67
38716;BME280;24833;49.324;8.694;2023-05-23T12:01:08;99918.69;;;23.54;46.78
38716;BME280;24833;49.324;8.694;2023-05-23T12:03:45;99925.25;;;23.38;46.58
38716;BME280;24833;49.324;8.694;2023-05-23T12:06:23;99919.31;;;23.21;46.38
38716;BME280;24833;49.324;8.694;2023-05-23T12:08:51;99920.13;;;23.06;46.18
38716;BME280;24833;49.324;8.694;2023-05-23T12:11:18;99913.09;;;22.95;46.50
38716;BME280;24833;49.324;8.694;2023-05-23T12:13:45;99913.63;;;22.87;46.71
38716;BME280;24833;49.324;8.694;2023-05-23T12:16:13;99918.25;;;22.81;46.69
38716;BME280;24833;49.324;8.694;2023-05-23T12:18:43;99907.88;;;22.78;46.79
38716;BME280;24833;49.324;8.694;2023-05-23T12:21:11;99904.88;;;22.79;47.18
38716;BME280;24833;49.324;8.694;2023-05-23T12:23:38;99912.28;;;22.89;47.43
38716;BME280;24833;49.324;8.694;2023-05-23T12:26:06;99906.25;;;23.02;47.66
38716;BME280;24833;49.324;8.694;2023-05-23T12:28:42;99906.75;;;23.20;48.02
38716;BME280;24833;49.324;8.694;2023-05-23T12:31:12;99896.91;;;23.44;48.33
38716;BME280;24833;49.324;8.694;2023-05-23T12:33:42;99899.56;;;23.75;48.65
38716;BME280;24833;49.324;8.694;2023-05-23T12:36:14;99903.38;;;24.23;50.33
38716;BME280;24833;49.324;8.694;2023-05-23T12:38:42;99896.91;;;24.87;49.48
38716;BME280;24833;49.324;8.694;2023-05-23T12:41:19;99897.19;;;25.44;48.92
38716;BME280;24833;49.324;8.694;2023-05-23T12:43:51;99901.16;;;25.80;48.00
38716;BME280;24833;49.324;8.694;2023-05-23T12:46:24;99899.69;;;26.07;47.69
38716;BME280;24833;49.324;8.694;2023-05-23T12:48:52;99910.16;;;26.24;46.09
38716;BME280;24833;49.324;8.694;2023-05-23T12:51:20;99908.81;;;26.21;45.64
38716;BME280;24833;49.324;8.694;2023-05-23T12:53:47;99911.75;;;26.06;45.07
38716;BME280;24833;49.324;8.694;2023-05-23T12:56:14;99913.16;;;25.85;44.50
38716;BME280;24833;49.324;8.694;2023-05-23T12:58:41;99905.81;;;25.56;44.50
38716;BME280;24833;49.324;8.694;2023-05-23T13:01:09;99905.28;;;25.30;44.59
38716;BME280;24833;49.324;8.694;2023-05-23T13:03:37;99912.88;;;25.09;44.62
38716;BME280;24833;49.324;8.694;2023-05-23T13:06:04;99906.97;;;24.92;45.03
38716;BME280;24833;49.324;8.694;2023-05-23T13:08:32;99902.69;;;24.81;45.42
38716;BME280;24833;49.324;8.694;2023-05-23T13:10:59;99897.84;;;24.72;45.44
38716;BME280;24833;49.324;8.694;2023-05-23T13:13:26;99903.41;;;24.62;45.27
38716;BME280;24833;49.324;8.694;2023-05-23T13:15:53;99899.66;;;24.53;45.54
38716;BME280;24833;49.324;8.694;2023-05-23T13:18:20;99898.13;;;24.42;45.39
38716;BME280;24833;49.324;8.694;2023-05-23T13:20:47;99891.06;;;24.36;45.25
38716;BME280;24833;49.324;8.694;2023-05-23T13:23:15;99895.97;;;24.29;45.28
38716;BME280;24833;49.324;8.694;2023-05-23T13:25:42;99891.88;;;24.26;45.60
38716;BME280;24833;49.324;8.694;2023-05-23T13:28:09;99887.25;;;24.27;45.94
38716;BME280;24833;49.324;8.694;2023-05-23T13:30:36;99887.25;;;24.27;45.68
38716;BME280;24833;49.324;8.694;2023-05-23T13:33:03;99890.78;;;24.27;45.70
38716;BME280;24833;49.324;8.694;2023-05-23T13:35:31;99885.31;;;24.27;45.73
38716;BME280;24833;49.324;8.694;2023-05-23T13:37:58;99879.03;;;24.32;45.93
38716;BME280;24833;49.324;8.694;2023-05-23T13:40:25;99877.09;;;24.42;45.84
38716;BME280;24833;49.324;8.694;2023-05-23T13:42:52;99879.34;;;24.64;46.66